UAE538 OMDB-VAAH
Flight info
| Callsign | UAE538 |
|---|---|
| Flight time | 2h 13m |
| Altitude | 41000 |
| Route | IVURO M677 LALDO B505 NADSO B524 ALPOR M504 TELEM N893 VASLA VASLA1A |
| Aircraft | A359/H-SDE2E3GHIJ3J4J5LM1ORWXY/LB1D1 |
Departure
| Time | 2026-04-26 10:00 |
|---|---|
| Airport | Dubai International Airport (OMDB) |
Arrival
| Time | 2026-04-26 12:13 |
|---|---|
| Airport | Sardar Vallabh Patel International Airport (VAAH) |
| Time | Latitude | Longitude | Altitude | Speed | Heading |
|---|---|---|---|---|---|
| 2026-04-26 09:22 | 25.24638 | 55.36657 | 27 ft | 0 kts | 276° |
| 2026-04-26 09:36 | 25.24637 | 55.36671 | 27 ft | 3 kts | 276° |
| 2026-04-26 09:36 | 25.24635 | 55.36691 | 27 ft | 3 kts | 276° |
| 2026-04-26 09:37 | 25.24631 | 55.36712 | 27 ft | 3 kts | 307° |
| 2026-04-26 09:37 | 25.24617 | 55.36726 | 26 ft | 3 kts | 336° |
| 2026-04-26 09:37 | 25.24598 | 55.36732 | 27 ft | 3 kts | 4° |
| 2026-04-26 09:37 | 25.24584 | 55.36729 | 26 ft | 0 kts | 36° |
| 2026-04-26 09:40 | 25.24594 | 55.36736 | 27 ft | 6 kts | 35° |
| 2026-04-26 09:40 | 25.24635 | 55.36767 | 27 ft | 8 kts | 33° |
| 2026-04-26 09:41 | 25.24689 | 55.36803 | 28 ft | 10 kts | 27° |
| 2026-04-26 09:41 | 25.24755 | 55.36806 | 28 ft | 10 kts | 329° |
| 2026-04-26 09:41 | 25.24779 | 55.36740 | 28 ft | 10 kts | 281° |
| 2026-04-26 09:41 | 25.24802 | 55.36659 | 28 ft | 13 kts | 294° |
| 2026-04-26 09:42 | 25.24854 | 55.36549 | 28 ft | 18 kts | 302° |
| 2026-04-26 09:42 | 25.24924 | 55.36425 | 28 ft | 19 kts | 302° |
| 2026-04-26 09:42 | 25.24998 | 55.36294 | 27 ft | 21 kts | 302° |
| 2026-04-26 09:42 | 25.25078 | 55.36151 | 28 ft | 26 kts | 302° |
| 2026-04-26 09:43 | 25.25187 | 55.35956 | 27 ft | 31 kts | 302° |
| 2026-04-26 09:43 | 25.25301 | 55.35754 | 27 ft | 31 kts | 302° |
| 2026-04-26 09:43 | 25.25415 | 55.35551 | 27 ft | 32 kts | 302° |
| 2026-04-26 09:43 | 25.25526 | 55.35356 | 27 ft | 27 kts | 301° |
| 2026-04-26 09:44 | 25.25620 | 55.35191 | 27 ft | 22 kts | 303° |
| 2026-04-26 09:44 | 25.25640 | 55.35159 | 27 ft | 0 kts | 303° |
| 2026-04-26 09:44 | 25.25665 | 55.35148 | 27 ft | 8 kts | 355° |
| 2026-04-26 09:44 | 25.25690 | 55.35148 | 27 ft | 0 kts | 358° |
| 2026-04-26 09:45 | 25.25693 | 55.35147 | 27 ft | 0 kts | 358° |
| 2026-04-26 09:45 | 25.25694 | 55.35147 | 27 ft | 0 kts | 358° |
| 2026-04-26 09:46 | 25.25710 | 55.35154 | 27 ft | 10 kts | 22° |
| 2026-04-26 09:46 | 25.25744 | 55.35184 | 27 ft | 0 kts | 49° |
| 2026-04-26 09:46 | 25.25773 | 55.35213 | 27 ft | 18 kts | 37° |
| 2026-04-26 09:47 | 25.25883 | 55.35290 | 28 ft | 18 kts | 32° |
| 2026-04-26 09:47 | 25.25982 | 55.35358 | 28 ft | 14 kts | 32° |
| 2026-04-26 09:47 | 25.26000 | 55.35370 | 28 ft | 0 kts | 32° |
| 2026-04-26 09:52 | 25.26003 | 55.35372 | 28 ft | 4 kts | 32° |
| 2026-04-26 09:52 | 25.26020 | 55.35405 | 28 ft | 6 kts | 72° |
| 2026-04-26 09:52 | 25.26018 | 55.35483 | 28 ft | 15 kts | 103° |
| 2026-04-26 09:53 | 25.25965 | 55.35597 | 28 ft | 23 kts | 122° |
| 2026-04-26 09:53 | 25.25845 | 55.35812 | 28 ft | 37 kts | 122° |
| 2026-04-26 09:53 | 25.25706 | 55.36058 | 29 ft | 38 kts | 122° |
| 2026-04-26 09:53 | 25.25566 | 55.36308 | 29 ft | 39 kts | 121° |
| 2026-04-26 09:54 | 25.25421 | 55.36565 | 28 ft | 40 kts | 122° |
| 2026-04-26 09:54 | 25.25273 | 55.36827 | 28 ft | 41 kts | 122° |
| 2026-04-26 09:54 | 25.25122 | 55.37094 | 29 ft | 41 kts | 122° |
| 2026-04-26 09:54 | 25.24973 | 55.37362 | 30 ft | 42 kts | 121° |
| 2026-04-26 09:55 | 25.24819 | 55.37637 | 29 ft | 43 kts | 122° |
| 2026-04-26 09:55 | 25.24684 | 55.37876 | 28 ft | 19 kts | 124° |
| 2026-04-26 09:55 | 25.24684 | 55.37959 | 29 ft | 0 kts | 52° |
| 2026-04-26 09:57 | 25.24696 | 55.37972 | 29 ft | 12 kts | 44° |
| 2026-04-26 09:57 | 25.24788 | 55.38025 | 31 ft | 15 kts | 359° |
| 2026-04-26 09:57 | 25.24851 | 55.37947 | 31 ft | 14 kts | 298° |
| 2026-04-26 09:58 | 25.24858 | 55.37934 | 31 ft | 0 kts | 300° |
| 2026-04-26 09:59 | 25.24859 | 55.37932 | 32 ft | 5 kts | 300° |
| 2026-04-26 09:59 | 25.25006 | 55.37669 | 32 ft | 77 kts | 302° |
| 2026-04-26 09:59 | 25.25396 | 55.36966 | 32 ft | 139 kts | 301° |
| 2026-04-26 09:59 | 25.25993 | 55.35899 | 239 ft | 177 kts | 303° |
| 2026-04-26 10:00 | 25.26657 | 55.34747 | 912 ft | 179 kts | 303° |
| 2026-04-26 10:00 | 25.27307 | 55.33530 | 1519 ft | 187 kts | 300° |
| 2026-04-26 10:00 | 25.27973 | 55.32240 | 1957 ft | 200 kts | 302° |
| 2026-04-26 10:00 | 25.28761 | 55.30888 | 2387 ft | 217 kts | 305° |
| 2026-04-26 10:01 | 25.29714 | 55.29501 | 2875 ft | 234 kts | 314° |
| 2026-04-26 10:01 | 25.31136 | 55.28664 | 3663 ft | 237 kts | 350° |
| 2026-04-26 10:01 | 25.32734 | 55.28931 | 4600 ft | 231 kts | 20° |
| 2026-04-26 10:01 | 25.34208 | 55.29574 | 5445 ft | 227 kts | 15° |
| 2026-04-26 10:02 | 25.35711 | 55.29965 | 6226 ft | 224 kts | 5° |
| 2026-04-26 10:02 | 25.37257 | 55.30084 | 6905 ft | 223 kts | 357° |
| 2026-04-26 10:02 | 25.38835 | 55.30028 | 7418 ft | 236 kts | 356° |
| 2026-04-26 10:02 | 25.40503 | 55.30420 | 7800 ft | 257 kts | 22° |
| 2026-04-26 10:03 | 25.42018 | 55.31572 | 8311 ft | 274 kts | 43° |
| 2026-04-26 10:03 | 25.43152 | 55.33322 | 8902 ft | 284 kts | 58° |
| 2026-04-26 10:03 | 25.44201 | 55.35214 | 9512 ft | 295 kts | 54° |
| 2026-04-26 10:03 | 25.45403 | 55.37098 | 10102 ft | 304 kts | 51° |
| 2026-04-26 10:04 | 25.46698 | 55.38982 | 10487 ft | 321 kts | 50° |
| 2026-04-26 10:04 | 25.48120 | 55.40983 | 10781 ft | 340 kts | 50° |
| 2026-04-26 10:04 | 25.49620 | 55.43094 | 11091 ft | 357 kts | 51° |
| 2026-04-26 10:04 | 25.51113 | 55.45366 | 11377 ft | 374 kts | 57° |
| 2026-04-26 10:05 | 25.52142 | 55.48042 | 11828 ft | 383 kts | 77° |
| 2026-04-26 10:05 | 25.52285 | 55.50993 | 12371 ft | 388 kts | 98° |
| 2026-04-26 10:05 | 25.51476 | 55.53822 | 12998 ft | 387 kts | 119° |
| 2026-04-26 10:05 | 25.50103 | 55.56390 | 13666 ft | 389 kts | 124° |
| 2026-04-26 10:06 | 25.48637 | 55.58914 | 14175 ft | 392 kts | 124° |
| 2026-04-26 10:06 | 25.47152 | 55.61471 | 14685 ft | 397 kts | 124° |
| 2026-04-26 10:06 | 25.45679 | 55.64025 | 15170 ft | 401 kts | 124° |
| 2026-04-26 10:06 | 25.45599 | 55.64165 | 15212 ft | 402 kts | 124° |
| 2026-04-26 10:07 | 25.44758 | 55.65630 | 15503 ft | 404 kts | 124° |
| 2026-04-26 10:07 | 25.43278 | 55.68289 | 16019 ft | 409 kts | 120° |
| 2026-04-26 10:07 | 25.42228 | 55.71224 | 16547 ft | 414 kts | 107° |
| 2026-04-26 10:07 | 25.41824 | 55.72947 | 16821 ft | 417 kts | 104° |
| 2026-04-26 10:08 | 25.41709 | 55.73474 | 16916 ft | 418 kts | 104° |
| 2026-04-26 10:08 | 25.41051 | 55.76619 | 17430 ft | 422 kts | 104° |
| 2026-04-26 10:08 | 25.40394 | 55.79800 | 17946 ft | 426 kts | 104° |
| 2026-04-26 10:08 | 25.39728 | 55.82969 | 18417 ft | 430 kts | 104° |
| 2026-04-26 10:09 | 25.39042 | 55.86205 | 18876 ft | 434 kts | 104° |
| 2026-04-26 10:09 | 25.38347 | 55.89468 | 19358 ft | 438 kts | 104° |
| 2026-04-26 10:09 | 25.37645 | 55.92755 | 19826 ft | 441 kts | 104° |
| 2026-04-26 10:09 | 25.36939 | 55.96070 | 20329 ft | 445 kts | 104° |
| 2026-04-26 10:10 | 25.36466 | 55.98284 | 20658 ft | 447 kts | 105° |
| 2026-04-26 10:10 | 25.36237 | 55.99352 | 20814 ft | 448 kts | 105° |
| 2026-04-26 10:10 | 25.35517 | 56.02705 | 21300 ft | 452 kts | 105° |
| 2026-04-26 10:10 | 25.34797 | 56.06054 | 21789 ft | 456 kts | 105° |
| 2026-04-26 10:11 | 25.34062 | 56.09472 | 22275 ft | 459 kts | 105° |
| 2026-04-26 10:11 | 25.33319 | 56.12921 | 22774 ft | 463 kts | 105° |
| 2026-04-26 10:11 | 25.32702 | 56.16432 | 23264 ft | 468 kts | 101° |
| 2026-04-26 10:11 | 25.32287 | 56.20015 | 23709 ft | 472 kts | 98° |
| 2026-04-26 10:12 | 25.31971 | 56.23644 | 24137 ft | 476 kts | 97° |
| 2026-04-26 10:12 | 25.31699 | 56.27300 | 24581 ft | 480 kts | 96° |
| 2026-04-26 10:12 | 25.31434 | 56.30988 | 25019 ft | 483 kts | 96° |
| 2026-04-26 10:12 | 25.31156 | 56.34705 | 25447 ft | 487 kts | 96° |
| 2026-04-26 10:13 | 25.30866 | 56.38398 | 25893 ft | 491 kts | 96° |
| 2026-04-26 10:13 | 25.30582 | 56.42170 | 26349 ft | 495 kts | 95° |
| 2026-04-26 10:13 | 25.30421 | 56.45984 | 26790 ft | 499 kts | 92° |
| 2026-04-26 10:13 | 25.30334 | 56.49827 | 27221 ft | 503 kts | 92° |
| 2026-04-26 10:14 | 25.30268 | 56.53704 | 27669 ft | 506 kts | 91° |
| 2026-04-26 10:14 | 25.30083 | 56.57597 | 28116 ft | 508 kts | 98° |
| 2026-04-26 10:14 | 25.29393 | 56.61430 | 28541 ft | 510 kts | 108° |
| 2026-04-26 10:14 | 25.28246 | 56.65138 | 28946 ft | 512 kts | 112° |
| 2026-04-26 10:15 | 25.26961 | 56.68765 | 29345 ft | 515 kts | 114° |
| 2026-04-26 10:15 | 25.25579 | 56.72428 | 29750 ft | 518 kts | 115° |
| 2026-04-26 10:15 | 25.24159 | 56.76096 | 30082 ft | 522 kts | 115° |
| 2026-04-26 10:15 | 25.22722 | 56.79792 | 30357 ft | 526 kts | 115° |
| 2026-04-26 10:16 | 25.21278 | 56.83521 | 30617 ft | 531 kts | 115° |
| 2026-04-26 10:16 | 25.19831 | 56.87285 | 30905 ft | 534 kts | 114° |
| 2026-04-26 10:16 | 25.18383 | 56.91069 | 31185 ft | 538 kts | 114° |
| 2026-04-26 10:16 | 25.16927 | 56.94888 | 31402 ft | 541 kts | 114° |
| 2026-04-26 10:17 | 25.15483 | 56.98677 | 31651 ft | 545 kts | 113° |
| 2026-04-26 10:17 | 25.14009 | 57.02545 | 31937 ft | 547 kts | 113° |
| 2026-04-26 10:17 | 25.12527 | 57.06432 | 32182 ft | 551 kts | 113° |
| 2026-04-26 10:17 | 25.11036 | 57.10337 | 32388 ft | 554 kts | 112° |
| 2026-04-26 10:18 | 25.09536 | 57.14262 | 32701 ft | 555 kts | 112° |
| 2026-04-26 10:18 | 25.08033 | 57.18186 | 33057 ft | 556 kts | 112° |
| 2026-04-26 10:18 | 25.06528 | 57.22115 | 33347 ft | 557 kts | 112° |
| 2026-04-26 10:18 | 25.05017 | 57.26053 | 33642 ft | 558 kts | 112° |
| 2026-04-26 10:19 | 25.03502 | 57.29999 | 33938 ft | 559 kts | 111° |
| 2026-04-26 10:19 | 25.02006 | 57.33892 | 34229 ft | 559 kts | 112° |
| 2026-04-26 10:19 | 25.00491 | 57.37829 | 34555 ft | 558 kts | 112° |
| 2026-04-26 10:19 | 24.98976 | 57.41761 | 34897 ft | 556 kts | 111° |
| 2026-04-26 10:20 | 24.97468 | 57.45669 | 35316 ft | 552 kts | 111° |
| 2026-04-26 10:20 | 24.96474 | 57.48245 | 35548 ft | 552 kts | 111° |
| 2026-04-26 10:20 | 24.94464 | 57.53452 | 35905 ft | 552 kts | 111° |
| 2026-04-26 10:20 | 24.92961 | 57.57344 | 36180 ft | 552 kts | 111° |
| 2026-04-26 10:21 | 24.91457 | 57.61233 | 36458 ft | 552 kts | 111° |
| 2026-04-26 10:21 | 24.89972 | 57.65070 | 36737 ft | 551 kts | 111° |
| 2026-04-26 10:21 | 24.88478 | 57.68925 | 37060 ft | 550 kts | 111° |
| 2026-04-26 10:21 | 24.86970 | 57.72812 | 37365 ft | 549 kts | 111° |
| 2026-04-26 10:22 | 24.85470 | 57.76676 | 37622 ft | 549 kts | 111° |
| 2026-04-26 10:22 | 24.83968 | 57.80541 | 37881 ft | 549 kts | 111° |
| 2026-04-26 10:22 | 24.82460 | 57.84397 | 38129 ft | 548 kts | 112° |
| 2026-04-26 10:22 | 24.80866 | 57.88207 | 38430 ft | 547 kts | 114° |
| 2026-04-26 10:23 | 24.79210 | 57.91971 | 38651 ft | 547 kts | 114° |
| 2026-04-26 10:23 | 24.77550 | 57.95677 | 38829 ft | 547 kts | 115° |
| 2026-04-26 10:23 | 24.75872 | 57.99421 | 39033 ft | 547 kts | 114° |
| 2026-04-26 10:23 | 24.74199 | 58.03178 | 39226 ft | 546 kts | 114° |
| 2026-04-26 10:24 | 24.72542 | 58.06926 | 39440 ft | 545 kts | 114° |
| 2026-04-26 10:24 | 24.70893 | 58.10671 | 39635 ft | 544 kts | 114° |
| 2026-04-26 10:24 | 24.69257 | 58.14401 | 39828 ft | 543 kts | 114° |
| 2026-04-26 10:24 | 24.67613 | 58.18151 | 40018 ft | 542 kts | 114° |
| 2026-04-26 10:25 | 24.65975 | 58.21886 | 40188 ft | 542 kts | 114° |
| 2026-04-26 10:25 | 24.64341 | 58.25610 | 40365 ft | 541 kts | 114° |
| 2026-04-26 10:25 | 24.62728 | 58.29280 | 40520 ft | 540 kts | 114° |
| 2026-04-26 10:25 | 24.61095 | 58.32994 | 40684 ft | 540 kts | 114° |
| 2026-04-26 10:26 | 24.59458 | 58.36710 | 40793 ft | 540 kts | 114° |
| 2026-04-26 10:26 | 24.57821 | 58.40426 | 40813 ft | 540 kts | 114° |
| 2026-04-26 10:26 | 24.54547 | 58.47839 | 40820 ft | 539 kts | 114° |
| 2026-04-26 10:27 | 24.51273 | 58.55246 | 40810 ft | 539 kts | 114° |
| 2026-04-26 10:27 | 24.48019 | 58.62595 | 40803 ft | 539 kts | 114° |
| 2026-04-26 10:28 | 24.44740 | 58.69988 | 40808 ft | 538 kts | 114° |
| 2026-04-26 10:28 | 24.41466 | 58.77361 | 40805 ft | 537 kts | 114° |
| 2026-04-26 10:29 | 24.38191 | 58.84730 | 40805 ft | 537 kts | 114° |
| 2026-04-26 10:29 | 24.34938 | 58.92040 | 40806 ft | 537 kts | 114° |
| 2026-04-26 10:30 | 24.31648 | 58.99421 | 40810 ft | 541 kts | 114° |
| 2026-04-26 10:30 | 24.28329 | 59.06857 | 40806 ft | 545 kts | 114° |
| 2026-04-26 10:31 | 24.24987 | 59.14332 | 40808 ft | 547 kts | 114° |
| 2026-04-26 10:31 | 24.21650 | 59.21780 | 40810 ft | 548 kts | 114° |
| 2026-04-26 10:32 | 24.18283 | 59.29278 | 40804 ft | 549 kts | 114° |
| 2026-04-26 10:32 | 24.14918 | 59.36765 | 40806 ft | 548 kts | 114° |
| 2026-04-26 10:33 | 24.11551 | 59.44243 | 40800 ft | 547 kts | 114° |
| 2026-04-26 10:33 | 24.08191 | 59.51699 | 40801 ft | 546 kts | 114° |
| 2026-04-26 10:34 | 24.04854 | 59.59095 | 40805 ft | 545 kts | 114° |
| 2026-04-26 10:34 | 24.01491 | 59.66526 | 40804 ft | 545 kts | 114° |
| 2026-04-26 10:35 | 23.98126 | 59.73950 | 40804 ft | 545 kts | 114° |
| 2026-04-26 10:35 | 23.94761 | 59.81367 | 40804 ft | 545 kts | 114° |
| 2026-04-26 10:36 | 23.91416 | 59.88729 | 40815 ft | 544 kts | 114° |
| 2026-04-26 10:36 | 23.88048 | 59.96129 | 40803 ft | 543 kts | 114° |
| 2026-04-26 10:37 | 23.84679 | 60.03518 | 40806 ft | 543 kts | 114° |
| 2026-04-26 10:37 | 23.81308 | 60.10902 | 40807 ft | 543 kts | 114° |
| 2026-04-26 10:38 | 23.77954 | 60.18238 | 40819 ft | 543 kts | 115° |
| 2026-04-26 10:38 | 23.74578 | 60.25609 | 40804 ft | 543 kts | 115° |
| 2026-04-26 10:39 | 23.71203 | 60.32963 | 40807 ft | 542 kts | 115° |
| 2026-04-26 10:39 | 23.67828 | 60.40308 | 40802 ft | 541 kts | 115° |
| 2026-04-26 10:40 | 23.64473 | 60.47601 | 40806 ft | 541 kts | 115° |
| 2026-04-26 10:40 | 23.61097 | 60.54928 | 40802 ft | 540 kts | 115° |
| 2026-04-26 10:41 | 23.57718 | 60.62248 | 40808 ft | 540 kts | 115° |
| 2026-04-26 10:41 | 23.54344 | 60.69549 | 40800 ft | 539 kts | 115° |
| 2026-04-26 10:42 | 23.50966 | 60.76845 | 40811 ft | 538 kts | 115° |
| 2026-04-26 10:42 | 23.47622 | 60.84056 | 40802 ft | 537 kts | 115° |
| 2026-04-26 10:43 | 23.44255 | 60.91307 | 40803 ft | 536 kts | 115° |
| 2026-04-26 10:43 | 23.40887 | 60.98551 | 40805 ft | 536 kts | 115° |
| 2026-04-26 10:44 | 23.37518 | 61.05788 | 40811 ft | 536 kts | 115° |
| 2026-04-26 10:44 | 23.34164 | 61.12978 | 40801 ft | 536 kts | 115° |
| 2026-04-26 10:45 | 23.31661 | 61.20532 | 40804 ft | 528 kts | 97° |
| 2026-04-26 10:45 | 23.30697 | 61.28427 | 40805 ft | 526 kts | 92° |
| 2026-04-26 10:46 | 23.30014 | 61.36347 | 40812 ft | 526 kts | 92° |
| 2026-04-26 10:46 | 23.29361 | 61.44226 | 40800 ft | 527 kts | 92° |
| 2026-04-26 10:47 | 23.28670 | 61.52164 | 40801 ft | 527 kts | 92° |
| 2026-04-26 10:47 | 23.27957 | 61.60095 | 40808 ft | 527 kts | 93° |
| 2026-04-26 10:48 | 23.27236 | 61.68027 | 40802 ft | 527 kts | 93° |
| 2026-04-26 10:48 | 23.26517 | 61.75904 | 40805 ft | 527 kts | 93° |
| 2026-04-26 10:49 | 23.25791 | 61.83827 | 40801 ft | 527 kts | 93° |
| 2026-04-26 10:49 | 23.25061 | 61.91759 | 40810 ft | 527 kts | 93° |
| 2026-04-26 10:50 | 23.24451 | 61.98352 | 40802 ft | 527 kts | 93° |
| 2026-04-26 10:50 | 23.23593 | 62.07552 | 40805 ft | 526 kts | 93° |
| 2026-04-26 10:51 | 23.22482 | 62.19408 | 40807 ft | 526 kts | 93° |
| 2026-04-26 10:52 | 23.21735 | 62.27322 | 40812 ft | 526 kts | 93° |
| 2026-04-26 10:52 | 23.20990 | 62.35173 | 40807 ft | 526 kts | 93° |
| 2026-04-26 10:53 | 23.20236 | 62.43076 | 40806 ft | 526 kts | 93° |
| 2026-04-26 10:53 | 23.19477 | 62.50988 | 40807 ft | 526 kts | 93° |
| 2026-04-26 10:54 | 23.18333 | 62.62848 | 40808 ft | 526 kts | 93° |
| 2026-04-26 10:54 | 23.17569 | 62.70710 | 40808 ft | 527 kts | 94° |
| 2026-04-26 10:55 | 23.16795 | 62.78625 | 40804 ft | 527 kts | 94° |
| 2026-04-26 10:55 | 23.16150 | 62.85196 | 40804 ft | 527 kts | 94° |
| 2026-04-26 10:56 | 23.15237 | 62.94442 | 40813 ft | 527 kts | 94° |
| 2026-04-26 10:56 | 23.14457 | 63.02301 | 40812 ft | 527 kts | 94° |
| 2026-04-26 10:57 | 23.13667 | 63.10218 | 40810 ft | 526 kts | 94° |
| 2026-04-26 10:57 | 23.12875 | 63.18124 | 40811 ft | 527 kts | 94° |
| 2026-04-26 10:58 | 23.12078 | 63.26030 | 40805 ft | 527 kts | 94° |
| 2026-04-26 10:58 | 23.11283 | 63.33883 | 40809 ft | 527 kts | 94° |
| 2026-04-26 10:59 | 23.10478 | 63.41792 | 40808 ft | 527 kts | 94° |
| 2026-04-26 10:59 | 23.09669 | 63.49698 | 40804 ft | 527 kts | 94° |
| 2026-04-26 11:00 | 23.08856 | 63.57602 | 40809 ft | 527 kts | 94° |
| 2026-04-26 11:00 | 23.08045 | 63.65456 | 40806 ft | 527 kts | 94° |
| 2026-04-26 11:01 | 23.07224 | 63.73365 | 40808 ft | 527 kts | 94° |
| 2026-04-26 11:01 | 23.06400 | 63.81259 | 40804 ft | 526 kts | 95° |
| 2026-04-26 11:02 | 23.05574 | 63.89159 | 40806 ft | 526 kts | 95° |
| 2026-04-26 11:02 | 23.04771 | 63.97056 | 40814 ft | 526 kts | 94° |
| 2026-04-26 11:03 | 23.03979 | 64.04900 | 40809 ft | 526 kts | 94° |
| 2026-04-26 11:03 | 23.03176 | 64.12784 | 40808 ft | 526 kts | 95° |
| 2026-04-26 11:04 | 23.02366 | 64.20669 | 40808 ft | 525 kts | 95° |
| 2026-04-26 11:04 | 23.01551 | 64.28554 | 40808 ft | 525 kts | 95° |
| 2026-04-26 11:05 | 23.00733 | 64.36429 | 40818 ft | 525 kts | 95° |
| 2026-04-26 11:05 | 22.99916 | 64.44253 | 40816 ft | 525 kts | 95° |
| 2026-04-26 11:06 | 22.99230 | 64.50794 | 40813 ft | 525 kts | 95° |
| 2026-04-26 11:06 | 22.98262 | 64.59984 | 40811 ft | 525 kts | 95° |
| 2026-04-26 11:07 | 22.97429 | 64.67851 | 40812 ft | 525 kts | 95° |
| 2026-04-26 11:07 | 22.96592 | 64.75718 | 40812 ft | 525 kts | 95° |
| 2026-04-26 11:08 | 22.95878 | 64.83535 | 40814 ft | 523 kts | 89° |
| 2026-04-26 11:08 | 22.95804 | 64.91425 | 40813 ft | 523 kts | 88° |
| 2026-04-26 11:09 | 22.95851 | 64.99310 | 40811 ft | 523 kts | 88° |
| 2026-04-26 11:09 | 22.95913 | 65.07200 | 40812 ft | 523 kts | 88° |
| 2026-04-26 11:10 | 22.95961 | 65.15079 | 40809 ft | 522 kts | 88° |
| 2026-04-26 11:10 | 22.95997 | 65.22901 | 40802 ft | 522 kts | 88° |
| 2026-04-26 11:11 | 22.96027 | 65.30784 | 40811 ft | 522 kts | 88° |
| 2026-04-26 11:11 | 22.96054 | 65.38669 | 40812 ft | 523 kts | 88° |
| 2026-04-26 11:12 | 22.96078 | 65.46560 | 40810 ft | 523 kts | 89° |
| 2026-04-26 11:12 | 22.96098 | 65.54448 | 40809 ft | 523 kts | 89° |
| 2026-04-26 11:13 | 22.96115 | 65.62284 | 40815 ft | 523 kts | 89° |
| 2026-04-26 11:13 | 22.96126 | 65.70180 | 40807 ft | 524 kts | 89° |
| 2026-04-26 11:14 | 22.96134 | 65.78081 | 40804 ft | 524 kts | 89° |
| 2026-04-26 11:14 | 22.96137 | 65.84647 | 40799 ft | 524 kts | 89° |
| 2026-04-26 11:15 | 22.96311 | 65.93879 | 40806 ft | 523 kts | 83° |
| 2026-04-26 11:15 | 22.97209 | 66.01706 | 40801 ft | 523 kts | 81° |
| 2026-04-26 11:16 | 22.98183 | 66.09479 | 40803 ft | 523 kts | 81° |
| 2026-04-26 11:16 | 22.99165 | 66.17304 | 40803 ft | 523 kts | 81° |
| 2026-04-26 11:17 | 23.00144 | 66.25125 | 40803 ft | 523 kts | 81° |
| 2026-04-26 11:17 | 23.01122 | 66.32960 | 40808 ft | 524 kts | 81° |
| 2026-04-26 11:18 | 23.02090 | 66.40755 | 40793 ft | 524 kts | 81° |
| 2026-04-26 11:18 | 23.03059 | 66.48595 | 40798 ft | 524 kts | 81° |
| 2026-04-26 11:19 | 23.04026 | 66.56439 | 40801 ft | 524 kts | 81° |
| 2026-04-26 11:19 | 23.04989 | 66.64289 | 40792 ft | 525 kts | 82° |
| 2026-04-26 11:20 | 23.05786 | 66.70813 | 40799 ft | 525 kts | 82° |
| 2026-04-26 11:20 | 23.06897 | 66.79943 | 40788 ft | 525 kts | 82° |
| 2026-04-26 11:21 | 23.07850 | 66.87806 | 40796 ft | 525 kts | 82° |
| 2026-04-26 11:21 | 23.08798 | 66.95664 | 40792 ft | 525 kts | 82° |
| 2026-04-26 11:22 | 23.09742 | 67.03528 | 40786 ft | 525 kts | 82° |
| 2026-04-26 11:22 | 23.10684 | 67.11399 | 40793 ft | 525 kts | 82° |
| 2026-04-26 11:23 | 23.11621 | 67.19268 | 40790 ft | 525 kts | 82° |
| 2026-04-26 11:23 | 23.12549 | 67.27091 | 40788 ft | 526 kts | 82° |
| 2026-04-26 11:24 | 23.13479 | 67.34973 | 40788 ft | 526 kts | 82° |
| 2026-04-26 11:24 | 23.14406 | 67.42853 | 40785 ft | 526 kts | 82° |
| 2026-04-26 11:25 | 23.15328 | 67.50737 | 40787 ft | 526 kts | 82° |
| 2026-04-26 11:25 | 23.16247 | 67.58623 | 40781 ft | 526 kts | 82° |
| 2026-04-26 11:26 | 23.17157 | 67.66459 | 40782 ft | 526 kts | 82° |
| 2026-04-26 11:26 | 23.18067 | 67.74345 | 40780 ft | 526 kts | 82° |
| 2026-04-26 11:27 | 23.18975 | 67.82237 | 40775 ft | 526 kts | 82° |
| 2026-04-26 11:27 | 23.19878 | 67.90125 | 40775 ft | 526 kts | 82° |
| 2026-04-26 11:28 | 23.20778 | 67.98025 | 40779 ft | 526 kts | 82° |
| 2026-04-26 11:28 | 23.21668 | 68.05866 | 40780 ft | 526 kts | 82° |
| 2026-04-26 11:29 | 23.22560 | 68.13762 | 40775 ft | 526 kts | 82° |
| 2026-04-26 11:29 | 23.23448 | 68.21664 | 40777 ft | 526 kts | 83° |
| 2026-04-26 11:30 | 23.24182 | 68.28222 | 40776 ft | 526 kts | 83° |
| 2026-04-26 11:30 | 23.25212 | 68.37463 | 40787 ft | 526 kts | 83° |
| 2026-04-26 11:31 | 23.26088 | 68.45361 | 40772 ft | 526 kts | 83° |
| 2026-04-26 11:31 | 23.26954 | 68.53212 | 40771 ft | 526 kts | 83° |
| 2026-04-26 11:32 | 23.27822 | 68.61113 | 40770 ft | 526 kts | 83° |
| 2026-04-26 11:32 | 23.28687 | 68.69017 | 40770 ft | 526 kts | 83° |
| 2026-04-26 11:33 | 23.29547 | 68.76922 | 40764 ft | 526 kts | 83° |
| 2026-04-26 11:33 | 23.30398 | 68.84776 | 40763 ft | 526 kts | 83° |
| 2026-04-26 11:34 | 23.31250 | 68.92683 | 40761 ft | 526 kts | 83° |
| 2026-04-26 11:34 | 23.32099 | 69.00593 | 40756 ft | 526 kts | 83° |
| 2026-04-26 11:35 | 23.32943 | 69.08501 | 40751 ft | 526 kts | 83° |
| 2026-04-26 11:35 | 23.33642 | 69.15079 | 40743 ft | 526 kts | 83° |
| 2026-04-26 11:36 | 23.34615 | 69.24271 | 40746 ft | 526 kts | 83° |
| 2026-04-26 11:36 | 23.35447 | 69.32181 | 40735 ft | 526 kts | 83° |
| 2026-04-26 11:37 | 23.36276 | 69.40094 | 40732 ft | 526 kts | 83° |
| 2026-04-26 11:37 | 23.37100 | 69.48008 | 40734 ft | 526 kts | 83° |
| 2026-04-26 11:38 | 23.37915 | 69.55869 | 40725 ft | 526 kts | 83° |
| 2026-04-26 11:38 | 23.38731 | 69.63777 | 40736 ft | 526 kts | 83° |
| 2026-04-26 11:39 | 23.39543 | 69.71684 | 40730 ft | 526 kts | 83° |
| 2026-04-26 11:39 | 23.40351 | 69.79600 | 40729 ft | 526 kts | 83° |
| 2026-04-26 11:40 | 23.41149 | 69.87454 | 40729 ft | 526 kts | 83° |
| 2026-04-26 11:40 | 23.41814 | 69.94029 | 40725 ft | 525 kts | 83° |
| 2026-04-26 11:42 | 23.45100 | 70.26931 | 40729 ft | 525 kts | 83° |
| 2026-04-26 11:43 | 23.45748 | 70.33499 | 40732 ft | 524 kts | 83° |
| 2026-04-26 11:43 | 23.46522 | 70.41391 | 40736 ft | 524 kts | 83° |
| 2026-04-26 11:44 | 23.47293 | 70.49291 | 40742 ft | 524 kts | 83° |
| 2026-04-26 11:44 | 23.48059 | 70.57182 | 40513 ft | 524 kts | 83° |
| 2026-04-26 11:45 | 23.48434 | 70.61063 | 40212 ft | 519 kts | 83° |
| 2026-04-26 11:45 | 23.48810 | 70.64959 | 39447 ft | 514 kts | 83° |
| 2026-04-26 11:45 | 23.49180 | 70.68811 | 38423 ft | 510 kts | 83° |
| 2026-04-26 11:45 | 23.49547 | 70.72637 | 37121 ft | 507 kts | 83° |
| 2026-04-26 11:46 | 23.49910 | 70.76434 | 36277 ft | 500 kts | 84° |
| 2026-04-26 11:46 | 23.50270 | 70.80196 | 35566 ft | 500 kts | 84° |
| 2026-04-26 11:46 | 23.50628 | 70.83962 | 34850 ft | 500 kts | 84° |
| 2026-04-26 11:46 | 23.50986 | 70.87725 | 34131 ft | 499 kts | 84° |
| 2026-04-26 11:47 | 23.51340 | 70.91469 | 33452 ft | 495 kts | 83° |
| 2026-04-26 11:47 | 23.51690 | 70.95177 | 32657 ft | 493 kts | 84° |
| 2026-04-26 11:47 | 23.51815 | 70.98878 | 31683 ft | 496 kts | 93° |
| 2026-04-26 11:47 | 23.51191 | 71.02571 | 30792 ft | 498 kts | 107° |
| 2026-04-26 11:48 | 23.50034 | 71.06133 | 29900 ft | 499 kts | 110° |
| 2026-04-26 11:48 | 23.48781 | 71.09662 | 28932 ft | 500 kts | 110° |
| 2026-04-26 11:48 | 23.47529 | 71.13171 | 28232 ft | 494 kts | 110° |
| 2026-04-26 11:48 | 23.46298 | 71.16639 | 27576 ft | 488 kts | 110° |
| 2026-04-26 11:49 | 23.45082 | 71.20072 | 26901 ft | 483 kts | 109° |
| 2026-04-26 11:49 | 23.43880 | 71.23472 | 26264 ft | 479 kts | 109° |
| 2026-04-26 11:49 | 23.42705 | 71.26800 | 25622 ft | 475 kts | 110° |
| 2026-04-26 11:49 | 23.41528 | 71.30134 | 24977 ft | 471 kts | 109° |
| 2026-04-26 11:50 | 23.40356 | 71.33451 | 24344 ft | 468 kts | 109° |
| 2026-04-26 11:50 | 23.39192 | 71.36746 | 23709 ft | 465 kts | 110° |
| 2026-04-26 11:50 | 23.38032 | 71.40025 | 23029 ft | 463 kts | 110° |
| 2026-04-26 11:50 | 23.36881 | 71.43277 | 22356 ft | 459 kts | 109° |
| 2026-04-26 11:51 | 23.35741 | 71.46500 | 21720 ft | 454 kts | 110° |
| 2026-04-26 11:51 | 23.34609 | 71.49692 | 21074 ft | 450 kts | 109° |
| 2026-04-26 11:51 | 23.33488 | 71.52853 | 20460 ft | 446 kts | 110° |
| 2026-04-26 11:51 | 23.32391 | 71.55945 | 19847 ft | 442 kts | 110° |
| 2026-04-26 11:52 | 23.31287 | 71.59053 | 19211 ft | 438 kts | 110° |
| 2026-04-26 11:52 | 23.30194 | 71.62128 | 18575 ft | 434 kts | 110° |
| 2026-04-26 11:52 | 23.29110 | 71.65176 | 17912 ft | 431 kts | 110° |
| 2026-04-26 11:52 | 23.28035 | 71.68197 | 17227 ft | 426 kts | 110° |
| 2026-04-26 11:53 | 23.26970 | 71.71188 | 16564 ft | 421 kts | 110° |
| 2026-04-26 11:53 | 23.25917 | 71.74143 | 15925 ft | 417 kts | 110° |
| 2026-04-26 11:53 | 23.24873 | 71.77072 | 15290 ft | 414 kts | 111° |
| 2026-04-26 11:54 | 23.22804 | 71.82866 | 14745 ft | 415 kts | 111° |
| 2026-04-26 11:54 | 23.21764 | 71.85776 | 14602 ft | 407 kts | 111° |
| 2026-04-26 11:54 | 23.20767 | 71.88565 | 13841 ft | 388 kts | 111° |
| 2026-04-26 11:54 | 23.19791 | 71.91293 | 12363 ft | 388 kts | 112° |
| 2026-04-26 11:55 | 23.18802 | 71.94062 | 11074 ft | 399 kts | 112° |
| 2026-04-26 11:55 | 23.17803 | 71.96850 | 10746 ft | 389 kts | 112° |
| 2026-04-26 11:55 | 23.16847 | 71.99520 | 10615 ft | 370 kts | 113° |
| 2026-04-26 11:55 | 23.15946 | 72.02034 | 10504 ft | 353 kts | 113° |
| 2026-04-26 11:56 | 23.15075 | 72.04462 | 10368 ft | 337 kts | 113° |
| 2026-04-26 11:56 | 23.14244 | 72.06779 | 10255 ft | 322 kts | 113° |
| 2026-04-26 11:56 | 23.13446 | 72.08999 | 10129 ft | 309 kts | 113° |
| 2026-04-26 11:56 | 23.12680 | 72.11132 | 10009 ft | 298 kts | 114° |
| 2026-04-26 11:57 | 23.11939 | 72.13191 | 9862 ft | 289 kts | 114° |
| 2026-04-26 11:57 | 23.11211 | 72.15212 | 9594 ft | 286 kts | 114° |
| 2026-04-26 11:57 | 23.10463 | 72.17279 | 9382 ft | 301 kts | 114° |
| 2026-04-26 11:57 | 23.09688 | 72.19421 | 9224 ft | 304 kts | 114° |
| 2026-04-26 11:58 | 23.08930 | 72.21527 | 8747 ft | 304 kts | 114° |
| 2026-04-26 11:58 | 23.08160 | 72.23664 | 8330 ft | 303 kts | 114° |
| 2026-04-26 11:58 | 23.07392 | 72.25793 | 7993 ft | 302 kts | 113° |
| 2026-04-26 11:58 | 23.06625 | 72.27917 | 7663 ft | 302 kts | 113° |
| 2026-04-26 11:59 | 23.05951 | 72.30068 | 7333 ft | 302 kts | 103° |
| 2026-04-26 11:59 | 23.05976 | 72.32327 | 7080 ft | 301 kts | 76° |
| 2026-04-26 11:59 | 23.06625 | 72.34490 | 6852 ft | 302 kts | 69° |
| 2026-04-26 11:59 | 23.07379 | 72.36614 | 6620 ft | 301 kts | 68° |
| 2026-04-26 12:00 | 23.08133 | 72.38727 | 6401 ft | 300 kts | 68° |
| 2026-04-26 12:00 | 23.08854 | 72.40772 | 6246 ft | 289 kts | 69° |
| 2026-04-26 12:00 | 23.09553 | 72.42770 | 6095 ft | 277 kts | 68° |
| 2026-04-26 12:00 | 23.10222 | 72.44690 | 5951 ft | 267 kts | 69° |
| 2026-04-26 12:01 | 23.10866 | 72.46551 | 5720 ft | 260 kts | 68° |
| 2026-04-26 12:01 | 23.11499 | 72.48375 | 5497 ft | 256 kts | 68° |
| 2026-04-26 12:01 | 23.12285 | 72.50061 | 5348 ft | 247 kts | 50° |
| 2026-04-26 12:01 | 23.13424 | 72.51449 | 5335 ft | 245 kts | 43° |
| 2026-04-26 12:02 | 23.14626 | 72.52753 | 5004 ft | 245 kts | 42° |
| 2026-04-26 12:02 | 23.15820 | 72.54034 | 4707 ft | 243 kts | 42° |
| 2026-04-26 12:02 | 23.17019 | 72.55327 | 4543 ft | 243 kts | 43° |
| 2026-04-26 12:02 | 23.18215 | 72.56623 | 4449 ft | 242 kts | 42° |
| 2026-04-26 12:03 | 23.19409 | 72.57919 | 4366 ft | 242 kts | 42° |
| 2026-04-26 12:03 | 23.20597 | 72.59211 | 4316 ft | 242 kts | 42° |
| 2026-04-26 12:03 | 23.21784 | 72.60502 | 4207 ft | 241 kts | 43° |
| 2026-04-26 12:03 | 23.22977 | 72.61800 | 4061 ft | 243 kts | 43° |
| 2026-04-26 12:04 | 23.24169 | 72.63100 | 3910 ft | 242 kts | 43° |
| 2026-04-26 12:04 | 23.25360 | 72.64397 | 3738 ft | 242 kts | 43° |
| 2026-04-26 12:04 | 23.26526 | 72.65669 | 3602 ft | 238 kts | 43° |
| 2026-04-26 12:04 | 23.27666 | 72.66916 | 3517 ft | 226 kts | 43° |
| 2026-04-26 12:05 | 23.28749 | 72.68099 | 3358 ft | 216 kts | 43° |
| 2026-04-26 12:05 | 23.29802 | 72.69250 | 3191 ft | 215 kts | 42° |
| 2026-04-26 12:05 | 23.30726 | 72.70529 | 3023 ft | 219 kts | 63° |
| 2026-04-26 12:05 | 23.30847 | 72.72134 | 2991 ft | 212 kts | 108° |
| 2026-04-26 12:06 | 23.30021 | 72.73287 | 2946 ft | 183 kts | 156° |
| 2026-04-26 12:06 | 23.28875 | 72.73556 | 2930 ft | 163 kts | 189° |
| 2026-04-26 12:06 | 23.27789 | 72.73269 | 2922 ft | 160 kts | 200° |
| 2026-04-26 12:06 | 23.26704 | 72.73090 | 2915 ft | 161 kts | 184° |
| 2026-04-26 12:07 | 23.25590 | 72.73166 | 2887 ft | 161 kts | 178° |
| 2026-04-26 12:07 | 23.24475 | 72.73306 | 2874 ft | 161 kts | 179° |
| 2026-04-26 12:07 | 23.23362 | 72.73455 | 2861 ft | 161 kts | 178° |
| 2026-04-26 12:07 | 23.22246 | 72.73605 | 2835 ft | 163 kts | 178° |
| 2026-04-26 12:08 | 23.21117 | 72.73757 | 2817 ft | 164 kts | 179° |
| 2026-04-26 12:08 | 23.19988 | 72.73909 | 2782 ft | 163 kts | 179° |
| 2026-04-26 12:08 | 23.18859 | 72.74053 | 2751 ft | 163 kts | 179° |
| 2026-04-26 12:08 | 23.17768 | 72.73865 | 2524 ft | 165 kts | 208° |
| 2026-04-26 12:09 | 23.16798 | 72.73232 | 2272 ft | 160 kts | 225° |
| 2026-04-26 12:09 | 23.16042 | 72.72370 | 2055 ft | 154 kts | 228° |
| 2026-04-26 12:09 | 23.15304 | 72.71580 | 1856 ft | 144 kts | 225° |
| 2026-04-26 12:09 | 23.14606 | 72.70844 | 1670 ft | 136 kts | 228° |
| 2026-04-26 12:10 | 23.13946 | 72.70133 | 1523 ft | 132 kts | 227° |
| 2026-04-26 12:10 | 23.13298 | 72.69436 | 1344 ft | 131 kts | 225° |
| 2026-04-26 12:10 | 23.12647 | 72.68740 | 1189 ft | 132 kts | 229° |
| 2026-04-26 12:10 | 23.11999 | 72.68041 | 1035 ft | 131 kts | 227° |
| 2026-04-26 12:11 | 23.11361 | 72.67359 | 900 ft | 132 kts | 227° |
| 2026-04-26 12:11 | 23.10689 | 72.66631 | 736 ft | 139 kts | 223° |
| 2026-04-26 12:11 | 23.10007 | 72.65902 | 523 ft | 136 kts | 225° |
| 2026-04-26 12:11 | 23.09362 | 72.65209 | 364 ft | 127 kts | 221° |
| 2026-04-26 12:12 | 23.08735 | 72.64540 | 223 ft | 126 kts | 221° |
| 2026-04-26 12:12 | 23.08162 | 72.63925 | 211 ft | 104 kts | 224° |
| 2026-04-26 12:12 | 23.07712 | 72.63433 | 214 ft | 74 kts | 226° |
| 2026-04-26 12:12 | 23.07489 | 72.63193 | 214 ft | 64 kts | 224° |
| 2026-04-26 12:13 | 23.07174 | 72.62777 | 209 ft | 39 kts | 254° |
| 2026-04-26 12:13 | 23.07170 | 72.62589 | 203 ft | 11 kts | 295° |
| 2026-04-26 12:13 | 23.07172 | 72.62584 | 204 ft | 0 kts | 295° |
| 2026-04-26 12:14 | 23.07186 | 72.62563 | 209 ft | 16 kts | 310° |
| 2026-04-26 12:14 | 23.07229 | 72.62513 | 209 ft | 0 kts | 316° |
| 2026-04-26 12:15 | 23.07239 | 72.62504 | 209 ft | 0 kts | 321° |
| 2026-04-26 12:16 | 23.07251 | 72.62494 | 208 ft | 1 kts | 324° |
| 2026-04-26 12:16 | 23.07258 | 72.62489 | 207 ft | 0 kts | 328° |
| 2026-04-26 12:16 | 23.07320 | 72.62506 | 200 ft | 15 kts | 42° |
| 2026-04-26 12:16 | 23.07398 | 72.62596 | 204 ft | 18 kts | 47° |
| 2026-04-26 12:17 | 23.07478 | 72.62687 | 205 ft | 7 kts | 41° |
| 2026-04-26 12:17 | 23.07480 | 72.62688 | 205 ft | 0 kts | 41° |
| 2026-04-26 12:17 | 23.07489 | 72.62698 | 204 ft | 7 kts | 46° |
| 2026-04-26 12:18 | 23.07522 | 72.62711 | 202 ft | 0 kts | 348° |
| 2026-04-26 12:18 | 23.07536 | 72.62699 | 203 ft | 2 kts | 314° |
| 2026-04-26 12:18 | 23.07539 | 72.62695 | 205 ft | 5 kts | 308° |
| 2026-04-26 12:18 | 23.07547 | 72.62679 | 207 ft | 4 kts | 303° |
| 2026-04-26 12:19 | 23.07555 | 72.62668 | 204 ft | 0 kts | 311° |
| 2026-04-26 12:19 | 23.07559 | 72.62665 | 204 ft | 0 kts | 315° |